Time;durP1;ratioP1;P1;durP2;ratioP2;P2;SDS_P1;SDS_P2;PMS_P1;PMS_P2;Temp;Humidity;BMP_temperature;BMP_pressure;BME280_temperature;BME280_humidity;BME280_pressure;Samples;Min_cycle;Max_cycle;Signal;HPM_P1;HPM_P2
2022/06/14 04:01:20;;;;;;;3.10;2.90;;;11.60;99.90;;;;;;5540471;23;20233;-70
2022/06/14 04:04:06;;;;;;;3.22;2.75;;;11.70;99.90;;;;;;4925402;29;20221;-70
2022/06/14 04:06:45;;;;;;;3.08;2.08;;;11.80;99.90;;;;;;4932490;29;20267;-70
2022/06/14 04:09:22;;;;;;;2.60;2.50;;;11.90;99.90;;;;;;4932475;29;20204;-70
2022/06/14 04:11:54;;;;;;;3.67;2.35;;;12.10;99.90;;;;;;4927612;29;20304;-70
2022/06/14 04:14:42;;;;;;;4.80;2.33;;;12.20;99.90;;;;;;4948249;29;20229;-70
2022/06/14 04:17:18;;;;;;;2.38;2.10;;;12.40;99.90;;;;;;4935824;28;20213;-71
2022/06/14 04:19:58;;;;;;;4.27;2.30;;;12.60;99.90;;;;;;4913149;29;20323;-70
2022/06/14 04:22:35;;;;;;;3.00;2.80;;;12.80;99.90;;;;;;4928891;29;20512;-70
2022/06/14 04:25:08;;;;;;;3.07;2.23;;;13.30;99.90;;;;;;4935146;29;20474;-70
2022/06/14 04:27:38;;;;;;;2.63;1.97;;;13.70;99.90;;;;;;4941650;29;20465;-70
2022/06/14 04:30:10;;;;;;;2.87;2.43;;;14.20;99.90;;;;;;4942484;28;20538;-70
2022/06/14 04:32:44;;;;;;;3.07;2.13;;;14.60;99.90;;;;;;4936697;29;20465;-70
2022/06/14 04:35:16;;;;;;;2.37;2.27;;;14.80;99.90;;;;;;4934508;29;20472;-70
2022/06/14 04:37:47;;;;;;;2.00;1.90;;;14.80;99.90;;;;;;4926577;29;20544;-71
2022/06/14 04:40:19;;;;;;;2.37;2.07;;;14.90;99.90;;;;;;4916484;29;20485;-71
2022/06/14 04:42:52;;;;;;;3.20;2.40;;;15.10;99.90;;;;;;4914242;29;20583;-71
2022/06/14 04:45:23;;;;;;;2.57;2.27;;;15.40;99.90;;;;;;4939543;29;20547;-71
2022/06/14 04:47:56;;;;;;;2.20;2.10;;;15.70;99.90;;;;;;4945956;28;21603;-71
2022/06/14 04:50:25;;;;;;;4.83;2.00;;;16.00;99.90;;;;;;4936819;29;20831;-71
2022/06/14 04:52:56;;;;;;;2.70;2.17;;;16.50;99.90;;;;;;4945206;28;21039;-71
2022/06/14 04:55:28;;;;;;;3.23;2.20;;;17.00;99.90;;;;;;4926836;29;20466;-71
2022/06/14 04:57:59;;;;;;;4.20;1.77;;;17.30;99.90;;;;;;4913122;29;20470;-71
2022/06/14 05:00:30;;;;;;;3.50;1.90;;;17.90;99.90;;;;;;4938901;29;20869;-71
2022/06/14 05:03:04;;;;;;;4.07;1.37;;;18.40;99.90;;;;;;4946906;28;20472;-71
2022/06/14 05:05:34;;;;;;;3.10;1.70;;;18.60;99.90;;;;;;4931301;29;20569;-71
2022/06/14 05:08:07;;;;;;;3.60;2.10;;;19.00;99.90;;;;;;4937564;29;20994;-71
2022/06/14 05:10:37;;;;;;;2.00;1.80;;;19.30;99.90;;;;;;4930392;29;20576;-71
2022/06/14 05:13:09;;;;;;;2.77;1.70;;;19.50;99.90;;;;;;4941798;29;20484;-71
2022/06/14 05:15:40;;;;;;;5.93;2.40;;;19.50;99.90;;;;;;4939832;29;20493;-71
2022/06/14 05:18:13;;;;;;;2.87;1.90;;;19.70;99.90;;;;;;4947100;28;20479;-71
2022/06/14 05:20:46;;;;;;;4.53;1.93;;;20.00;99.90;;;;;;4938165;29;20979;-71
2022/06/14 05:23:19;;;;;;;1.93;1.83;;;20.30;99.90;;;;;;4929420;29;20811;-71
2022/06/14 05:25:53;;;;;;;2.40;2.10;;;20.30;99.90;;;;;;4923938;29;20506;-71
2022/06/14 05:28:31;;;;;;;1.90;1.60;;;20.50;99.90;;;;;;4928705;29;20838;-71
2022/06/14 05:31:10;;;;;;;3.33;1.80;;;20.50;99.90;;;;;;4953982;28;20480;-71
2022/06/14 05:33:47;;;;;;;2.77;2.17;;;20.70;99.90;;;;;;4943824;29;20827;-71
2022/06/14 05:36:19;;;;;;;1.90;1.80;;;21.00;99.90;;;;;;4953147;28;20958;-71
2022/06/14 05:38:51;;;;;;;3.33;1.70;;;21.20;99.90;;;;;;4933872;29;20503;-71
2022/06/14 05:41:24;;;;;;;3.17;1.97;;;21.00;99.90;;;;;;4934712;29;21009;-70
2022/06/14 05:43:53;;;;;;;1.87;1.73;;;20.80;99.90;;;;;;4924452;29;20838;-71
2022/06/14 05:46:25;;;;;;;2.63;1.90;;;21.20;99.90;;;;;;4947676;29;20924;-71
2022/06/14 05:48:56;;;;;;;1.73;1.60;;;21.40;99.90;;;;;;4936038;29;20485;-71
2022/06/14 05:51:27;;;;;;;1.73;1.60;;;21.90;99.90;;;;;;4942316;29;21043;-71
2022/06/14 05:54:00;;;;;;;1.63;1.53;;;22.00;99.90;;;;;;4936436;29;20470;-71
2022/06/14 05:56:31;;;;;;;2.70;2.07;;;22.10;99.90;;;;;;4936888;28;20469;-71
2022/06/14 05:59:04;;;;;;;2.20;2.00;;;22.00;99.90;;;;;;4937289;29;20513;-71
2022/06/14 06:01:36;;;;;;;1.83;1.73;;;21.50;99.90;;;;;;4923620;28;21080;-71
2022/06/14 06:04:10;;;;;;;3.60;1.77;;;21.30;99.90;;;;;;4943197;28;20474;-71
2022/06/14 06:06:41;;;;;;;2.37;2.03;;;21.50;99.90;;;;;;4940976;29;20526;-71
2022/06/14 06:09:15;;;;;;;2.73;1.80;;;21.60;99.90;;;;;;4931018;29;20474;-70
2022/06/14 06:11:49;;;;;;;2.67;1.60;;;21.20;99.90;;;;;;4934251;29;20491;-70
2022/06/14 06:14:21;;;;;;;1.90;1.80;;;21.30;99.90;;;;;;4939115;29;20505;-70
2022/06/14 06:16:54;;;;;;;2.00;1.43;;;21.80;99.90;;;;;;4936050;29;20471;-70
2022/06/14 06:19:26;;;;;;;1.80;1.67;;;22.20;99.90;;;;;;4937035;28;20490;-70
2022/06/14 06:21:58;;;;;;;1.47;1.37;;;22.50;99.90;;;;;;4936723;29;20567;-70
2022/06/14 06:24:32;;;;;;;2.87;1.57;;;22.40;99.90;;;;;;4933985;29;20523;-70
2022/06/14 06:27:02;;;;;;;1.37;1.27;;;22.30;99.90;;;;;;4928246;29;20475;-70
2022/06/14 06:29:35;;;;;;;2.13;1.20;;;22.70;99.90;;;;;;4933831;29;20470;-70
2022/06/14 06:32:04;;;;;;;1.63;1.50;;;22.90;99.10;;;;;;4938310;29;20492;-70
2022/06/14 06:34:32;;;;;;;3.23;1.70;;;23.50;98.10;;;;;;4935587;29;20474;-70
2022/06/14 06:37:07;;;;;;;1.73;1.33;;;23.70;97.80;;;;;;4938751;29;20472;-70
2022/06/14 06:39:53;;;;;;;1.40;1.30;;;23.80;97.10;;;;;;4930650;29;20671;-71
2022/06/14 06:42:26;;;;;;;1.70;1.13;;;23.60;96.60;;;;;;4921134;29;20487;-70
2022/06/14 06:45:00;;;;;;;1.13;1.13;;;23.50;96.70;;;;;;4930633;29;20472;-69
2022/06/14 06:47:33;;;;;;;1.20;1.10;;;23.10;96.10;;;;;;4941131;28;20479;-69
2022/06/14 06:50:22;;;;;;;3.87;2.20;;;23.10;96.80;;;;;;4939555;29;20850;-71
2022/06/14 06:53:11;;;;;;;1.60;1.50;;;23.20;96.10;;;;;;4925645;29;20471;-68
2022/06/14 06:55:46;;;;;;;1.20;0.90;;;23.00;96.20;;;;;;4929354;29;20502;-69
2022/06/14 06:58:24;;;;;;;2.53;1.43;;;21.70;97.40;;;;;;4938307;28;20549;-69
2022/06/14 07:00:56;;;;;;;2.30;1.23;;;20.60;99.10;;;;;;4933230;29;20513;-69
2022/06/14 07:03:38;;;;;;;2.30;1.10;;;19.80;99.90;;;;;;4936861;29;20477;-69
2022/06/14 07:06:18;;;;;;;2.77;1.23;;;19.30;99.90;;;;;;4936755;29;20462;-70
2022/06/14 07:08:53;;;;;;;6.73;1.77;;;19.10;99.90;;;;;;4926327;29;20601;-69
2022/06/14 07:11:23;;;;;;;2.87;1.50;;;18.90;99.90;;;;;;4923275;29;20873;-69
2022/06/14 07:14:00;;;;;;;2.37;1.30;;;18.60;99.90;;;;;;4936827;29;20473;-70
2022/06/14 07:16:31;;;;;;;4.73;1.57;;;18.20;99.90;;;;;;4923567;29;20476;-70
2022/06/14 07:19:19;;;;;;;2.17;2.07;;;18.00;99.90;;;;;;4932612;29;20560;-69
2022/06/14 07:21:55;;;;;;;2.43;1.53;;;17.90;99.90;;;;;;4925866;29;20522;-70
2022/06/14 07:24:36;;;;;;;3.47;1.57;;;17.80;99.90;;;;;;4936720;29;20468;-71
2022/06/14 07:27:15;;;;;;;1.43;1.43;;;17.60;99.90;;;;;;4934372;29;20540;-70
2022/06/14 07:29:50;;;;;;;2.80;1.50;;;17.70;99.90;;;;;;4932163;29;20548;-72
2022/06/14 07:32:25;;;;;;;6.97;1.77;;;17.80;99.90;;;;;;4927775;29;20544;-71
2022/06/14 07:35:07;;;;;;;4.00;1.67;;;17.80;99.90;;;;;;4930481;29;20536;-70
2022/06/14 07:37:44;;;;;;;1.87;1.70;;;17.90;99.90;;;;;;4930030;29;20511;-69
2022/06/14 07:40:20;;;;;;;1.93;1.83;;;17.90;99.90;;;;;;4934452;29;21563;-69
2022/06/14 07:43:00;;;;;;;2.53;1.83;;;18.10;99.90;;;;;;4932371;29;20465;-69
2022/06/14 07:45:35;;;;;;;2.27;2.07;;;18.30;99.90;;;;;;4938186;29;20556;-69
2022/06/14 07:48:10;;;;;;;4.70;1.47;;;18.50;99.90;;;;;;4938464;28;20456;-70
2022/06/14 07:50:41;;;;;;;2.30;1.30;;;18.50;99.90;;;;;;4942189;29;20564;-70
2022/06/14 07:53:15;;;;;;;2.23;1.43;;;18.90;99.90;;;;;;4929886;28;20500;-69
2022/06/14 07:55:47;;;;;;;3.07;1.67;;;19.00;99.90;;;;;;4923233;29;20465;-69
2022/06/14 07:58:24;;;;;;;3.10;1.80;;;19.20;99.90;;;;;;4930654;28;20472;-69
2022/06/14 08:01:14;;;;;;;1.20;1.10;;;19.40;99.90;;;;;;4929992;29;20672;-69
2022/06/14 08:03:50;;;;;;;1.90;1.80;;;19.50;99.90;;;;;;4924446;29;20465;-69
2022/06/14 08:06:23;;;;;;;3.60;2.00;;;19.90;99.90;;;;;;4921630;29;20462;-69
2022/06/14 08:09:08;;;;;;;2.87;1.73;;;20.00;99.90;;;;;;4924758;29;20469;-69
2022/06/14 08:11:41;;;;;;;1.67;1.57;;;20.10;99.90;;;;;;4932964;29;20531;-70
2022/06/14 08:14:15;;;;;;;2.40;1.60;;;20.10;99.90;;;;;;4924084;29;20498;-70
2022/06/14 08:16:49;;;;;;;1.50;1.50;;;20.10;99.90;;;;;;4932490;29;20543;-69
2022/06/14 08:19:24;;;;;;;2.97;1.80;;;19.90;99.90;;;;;;4927150;28;20462;-70
2022/06/14 08:22:02;;;;;;;3.57;1.77;;;19.70;99.90;;;;;;4919600;29;20520;-70
2022/06/14 08:24:45;;;;;;;1.57;1.43;;;19.30;99.90;;;;;;4923869;29;20850;-70
2022/06/14 08:27:19;;;;;;;2.03;1.47;;;19.20;99.90;;;;;;4924239;28;20473;-69
2022/06/14 08:29:53;;;;;;;2.20;1.60;;;19.40;99.90;;;;;;4928827;29;20469;-69
2022/06/14 08:32:29;;;;;;;1.80;1.70;;;19.60;99.90;;;;;;4930372;28;20579;-69
2022/06/14 08:35:02;;;;;;;1.53;1.40;;;19.70;99.90;;;;;;4939827;28;20501;-69
2022/06/14 08:37:35;;;;;;;2.63;1.60;;;19.80;99.90;;;;;;4923510;28;20596;-69
2022/06/14 08:40:19;;;;;;;1.40;1.40;;;20.20;99.90;;;;;;4922730;29;20548;-69
2022/06/14 08:42:54;;;;;;;1.80;1.70;;;20.50;99.90;;;;;;4916178;29;20971;-69
2022/06/14 08:45:32;;;;;;;2.77;1.40;;;20.30;99.90;;;;;;4923813;29;20465;-69
2022/06/14 08:48:20;;;;;;;2.80;1.73;;;20.10;99.90;;;;;;4919998;29;20495;-69
2022/06/14 08:51:04;;;;;;;3.37;1.57;;;19.70;99.90;;;;;;4922965;29;20932;-69
2022/06/14 08:54:06;;;;;;;3.23;1.53;;;19.50;99.90;;;;;;4917069;29;20508;-68
2022/06/14 08:57:08;;;;;;;1.47;1.40;;;19.30;99.90;;;;;;4916995;29;20473;-69
2022/06/14 09:00:27;;;;;;;2.57;1.73;;;19.10;99.90;;;;;;4930446;29;20657;-69
2022/06/14 09:03:48;;;;;;;3.63;1.30;;;19.10;99.90;;;;;;4924595;29;20547;-69
2022/06/14 09:07:09;;;;;;;2.20;1.90;;;19.10;99.90;;;;;;4935963;29;20535;-69
2022/06/14 09:10:07;;;;;;;2.37;2.10;;;19.00;99.90;;;;;;4873134;29;20481;-70
2022/06/14 09:13:02;;;;;;;1.73;1.33;;;19.00;99.90;;;;;;4887314;29;20514;-69
2022/06/14 09:16:17;;;;;;;3.93;1.70;;;18.80;99.90;;;;;;4912545;29;20480;-70
2022/06/14 09:19:08;;;;;;;3.47;1.40;;;18.80;99.90;;;;;;4909499;28;20951;-70
2022/06/14 09:21:53;;;;;;;2.03;1.67;;;19.00;99.90;;;;;;4922023;29;20489;-69
2022/06/14 09:24:41;;;;;;;3.97;1.40;;;19.00;99.90;;;;;;4913792;29;20893;-69
2022/06/14 09:27:34;;;;;;;1.73;1.53;;;19.30;99.90;;;;;;4921928;28;20478;-70
2022/06/14 09:30:21;;;;;;;5.13;2.70;;;19.40;99.90;;;;;;4919685;29;21032;-68
2022/06/14 09:33:25;;;;;;;2.73;1.40;;;19.40;99.90;;;;;;4930352;29;20473;-69
2022/06/14 09:36:31;;;;;;;3.10;1.70;;;19.70;99.90;;;;;;4924508;29;20992;-69
2022/06/14 09:39:25;;;;;;;5.20;1.83;;;19.80;99.90;;;;;;4904108;29;20474;-69
2022/06/14 09:42:26;;;;;;;3.73;1.80;;;19.80;99.90;;;;;;4925301;29;20886;-69
2022/06/14 09:45:32;;;;;;;2.73;1.60;;;19.90;99.90;;;;;;4937900;29;20541;-69
2022/06/14 09:48:22;;;;;;;2.97;1.77;;;20.10;99.90;;;;;;4939388;29;20833;-68
2022/06/14 09:51:36;;;;;;;1.87;1.57;;;20.00;99.90;;;;;;4938283;28;20519;-69
2022/06/14 09:54:40;;;;;;;2.23;2.03;;;19.90;99.90;;;;;;4930239;29;20947;-69
2022/06/14 09:57:38;;;;;;;3.17;2.17;;;19.70;99.90;;;;;;4928331;29;20461;-69
2022/06/14 10:00:42;;;;;;;4.27;3.03;;;19.60;99.90;;;;;;4930668;29;20798;-69
2022/06/14 10:03:47;;;;;;;3.47;2.20;;;19.50;99.90;;;;;;4926279;29;20873;-69
2022/06/14 10:06:48;;;;;;;1.70;1.70;;;19.60;99.90;;;;;;4938635;29;20890;-69
2022/06/14 10:09:36;;;;;;;3.03;1.90;;;19.30;99.90;;;;;;4895812;29;20477;-69
2022/06/14 10:12:29;;;;;;;2.93;2.20;;;18.90;99.90;;;;;;4934286;29;20490;-69
2022/06/14 10:15:10;;;;;;;2.40;2.20;;;18.80;99.90;;;;;;4929486;29;21012;-70
2022/06/14 10:17:58;;;;;;;2.07;1.80;;;18.60;99.90;;;;;;4943444;28;20977;-69
2022/06/14 10:20:49;;;;;;;3.70;1.90;;;18.50;99.90;;;;;;4938597;29;20966;-69
2022/06/14 10:23:50;;;;;;;2.57;1.60;;;18.40;99.90;;;;;;4934362;29;20975;-69
2022/06/14 10:29:51;;;;;;;2.27;1.60;;;18.50;99.90;;;;;;4948239;29;20459;-69
2022/06/14 10:32:50;;;;;;;2.20;2.00;;;18.60;99.90;;;;;;4932846;28;20870;-70
2022/06/14 10:35:31;;;;;;;2.80;2.40;;;18.60;99.90;;;;;;4923037;29;20888;-69
2022/06/14 10:38:46;;;;;;;4.73;2.20;;;18.70;99.90;;;;;;4927959;29;20544;-70
2022/06/14 10:41:34;;;;;;;3.03;2.20;;;18.80;99.90;;;;;;4937992;29;20492;-69
2022/06/14 10:44:17;;;;;;;2.30;2.10;;;19.10;99.90;;;;;;4932881;29;20472;-69
2022/06/14 10:47:01;;;;;;;5.53;2.13;;;19.40;99.90;;;;;;4941017;29;20599;-69
2022/06/14 10:49:51;;;;;;;4.93;2.30;;;19.70;99.90;;;;;;4953616;28;20476;-70
2022/06/14 10:52:48;;;;;;;2.97;2.13;;;19.90;99.90;;;;;;4927719;28;20493;-69
2022/06/14 10:55:35;;;;;;;2.70;2.50;;;20.20;99.90;;;;;;4908804;29;20471;-69
2022/06/14 10:58:35;;;;;;;3.27;2.90;;;20.30;99.90;;;;;;4915620;29;20463;-69
2022/06/14 11:01:17;;;;;;;1.90;1.80;;;20.30;99.90;;;;;;4910928;29;20585;-70
2022/06/14 11:04:01;;;;;;;2.60;2.30;;;20.00;99.90;;;;;;4926180;29;20493;-70
2022/06/14 11:06:52;;;;;;;1.80;1.60;;;19.90;99.90;;;;;;4934516;29;20819;-70
2022/06/14 11:09:34;;;;;;;1.93;1.83;;;19.90;99.90;;;;;;4934178;29;20485;-70
2022/06/14 11:12:39;;;;;;;2.53;1.80;;;19.90;99.90;;;;;;4933741;29;20492;-70
2022/06/14 11:15:11;;;;;;;2.50;1.60;;;20.10;99.90;;;;;;4932715;29;20473;-69
2022/06/14 11:18:07;;;;;;;2.83;2.27;;;20.30;99.90;;;;;;4939558;29;20488;-69
2022/06/14 11:20:50;;;;;;;3.07;2.23;;;20.30;99.90;;;;;;4944741;28;20492;-69
2022/06/14 11:23:24;;;;;;;2.60;2.07;;;20.50;99.90;;;;;;4938138;28;20466;-69
2022/06/14 11:26:06;;;;;;;2.10;1.90;;;20.50;99.90;;;;;;4926007;28;20468;-70
2022/06/14 11:28:43;;;;;;;2.13;2.00;;;20.30;99.90;;;;;;4921381;29;20471;-70
2022/06/14 11:31:19;;;;;;;2.73;1.73;;;20.20;99.90;;;;;;4916625;29;20497;-69
2022/06/14 11:34:16;;;;;;;2.40;2.30;;;20.20;99.90;;;;;;4925996;29;20950;-69
2022/06/14 11:37:22;;;;;;;2.10;1.90;;;20.30;99.90;;;;;;4930766;29;20549;-69
2022/06/14 11:40:01;;;;;;;2.30;1.93;;;20.50;99.90;;;;;;4923573;29;20966;-69
2022/06/14 11:42:37;;;;;;;3.23;2.00;;;20.60;99.90;;;;;;4930898;29;20493;-69
2022/06/14 11:45:29;;;;;;;4.23;2.13;;;20.80;99.90;;;;;;4934111;29;20983;-69
2022/06/14 11:48:20;;;;;;;4.83;1.60;;;20.90;99.90;;;;;;4932048;29;21049;-68
2022/06/14 11:50:59;;;;;;;3.63;1.53;;;20.90;99.90;;;;;;4926805;29;20546;-67
2022/06/14 11:53:54;;;;;;;1.93;1.83;;;20.70;99.90;;;;;;4946310;29;20463;-68
2022/06/14 11:56:34;;;;;;;1.03;0.90;;;20.70;99.90;;;;;;4920782;29;20501;-67
2022/06/14 11:59:22;;;;;;;2.30;2.07;;;20.80;99.90;;;;;;4929269;29;21122;-69
2022/06/14 12:02:03;;;;;;;1.60;1.50;;;20.70;99.90;;;;;;4932728;29;20484;-68
2022/06/14 12:04:49;;;;;;;2.03;1.93;;;20.90;99.90;;;;;;4938335;28;20548;-68
2022/06/14 12:07:25;;;;;;;2.17;1.83;;;21.00;99.70;;;;;;4929818;29;20600;-68
2022/06/14 12:10:30;;;;;;;1.47;1.47;;;21.00;99.80;;;;;;4917143;29;21228;-68
2022/06/14 12:13:09;;;;;;;2.00;1.60;;;21.00;99.90;;;;;;4928709;29;20457;-68
2022/06/14 12:15:46;;;;;;;1.97;1.87;;;20.80;99.90;;;;;;4931468;29;20869;-67
2022/06/14 12:18:19;;;;;;;3.20;2.07;;;20.50;99.90;;;;;;4938046;29;20823;-68
2022/06/14 12:20:56;;;;;;;2.30;2.03;;;20.50;99.90;;;;;;4920020;29;20511;-68
2022/06/14 12:23:33;;;;;;;2.47;2.20;;;20.50;99.90;;;;;;4946431;29;20567;-68
2022/06/14 12:29:05;;;;;;;1.80;1.80;;;20.90;99.90;;;;;;4928703;29;20468;-67
2022/06/14 12:31:43;;;;;;;2.73;1.80;;;21.10;99.90;;;;;;4936450;29;20558;-68
2022/06/14 12:34:38;;;;;;;2.40;1.80;;;21.40;99.90;;;;;;4929508;29;20549;-68
2022/06/14 12:37:26;;;;;;;2.97;2.17;;;21.40;99.90;;;;;;4939680;29;20466;-67
2022/06/14 12:39:59;;;;;;;8.67;2.40;;;21.60;99.90;;;;;;4933490;29;21098;-68
2022/06/14 12:42:35;;;;;;;2.70;2.03;;;21.70;99.90;;;;;;4924292;29;20552;-68
2022/06/14 12:45:08;;;;;;;2.07;1.97;;;21.80;99.90;;;;;;4933212;29;20832;-68
2022/06/14 12:47:58;;;;;;;3.00;2.20;;;21.90;99.30;;;;;;4939765;28;20864;-69
2022/06/14 12:50:32;;;;;;;3.40;1.80;;;21.80;98.60;;;;;;4923033;28;20624;-68
2022/06/14 12:53:05;;;;;;;2.23;1.90;;;21.60;98.60;;;;;;4920718;29;20851;-67
2022/06/14 12:55:43;;;;;;;3.40;1.97;;;21.40;98.70;;;;;;4925118;29;20474;-67
2022/06/14 12:58:34;;;;;;;2.27;1.50;;;21.30;98.90;;;;;;4934133;29;20985;-68
2022/06/14 13:04:19;;;;;;;3.20;1.90;;;21.10;99.20;;;;;;5076473;27;20565;-67
2022/06/14 13:07:19;;;;;;;3.60;1.70;;;20.90;99.60;;;;;;5063155;28;20483;-67
2022/06/14 13:10:02;;;;;;;1.73;1.30;;;20.80;99.50;;;;;;5056311;28;21160;-68
2022/06/14 13:12:42;;;;;;;2.00;1.60;;;20.50;99.90;;;;;;5059886;28;20517;-67
2022/06/14 13:15:16;;;;;;;2.10;2.00;;;20.50;99.90;;;;;;5064652;28;20986;-68
2022/06/14 13:17:58;;;;;;;4.33;2.03;;;20.50;99.90;;;;;;5065217;28;21009;-68
2022/06/14 13:20:47;;;;;;;4.03;2.07;;;20.30;99.90;;;;;;5054580;28;20496;-68
2022/06/14 13:23:38;;;;;;;4.80;1.97;;;20.20;99.90;;;;;;5058829;28;20489;-68
2022/06/14 13:26:41;;;;;;;1.60;1.60;;;20.20;99.90;;;;;;5064972;28;20781;-68
2022/06/14 13:29:35;;;;;;;2.40;2.20;;;20.20;99.90;;;;;;5023566;28;20467;-67
2022/06/14 13:32:40;;;;;;;2.77;1.83;;;20.30;99.90;;;;;;5058297;28;20799;-68
2022/06/14 13:35:32;;;;;;;2.43;2.00;;;20.40;99.90;;;;;;4987544;28;20461;-67
2022/06/14 13:38:05;;;;;;;3.07;2.13;;;20.40;99.90;;;;;;5054833;28;20577;-68
2022/06/14 13:40:42;;;;;;;3.63;1.63;;;20.70;99.90;;;;;;5058997;28;20468;-68
2022/06/14 13:43:35;;;;;;;2.00;1.90;;;20.90;99.90;;;;;;5062683;28;21031;-68
2022/06/14 13:46:19;;;;;;;1.40;1.40;;;21.10;99.20;;;;;;5061009;28;20475;-68
2022/06/14 13:48:54;;;;;;;1.87;1.73;;;21.00;99.90;;;;;;5058935;28;20471;-69
2022/06/14 13:51:33;;;;;;;2.20;1.93;;;21.20;99.70;;;;;;5064572;28;20561;-69
2022/06/14 13:54:17;;;;;;;2.40;2.30;;;21.20;99.60;;;;;;5064735;28;20456;-67
2022/06/14 13:56:56;;;;;;;2.00;1.90;;;21.30;99.80;;;;;;5060451;28;20576;-69
2022/06/14 13:59:31;;;;;;;2.03;1.90;;;21.40;99.60;;;;;;5064775;28;20939;-69
2022/06/14 14:02:06;;;;;;;3.20;3.00;;;21.50;99.60;;;;;;5062469;28;20593;-69
2022/06/14 14:04:41;;;;;;;2.00;2.00;;;21.40;99.40;;;;;;5064870;28;20454;-69
2022/06/14 14:07:23;;;;;;;2.03;1.67;;;21.40;99.80;;;;;;5060018;28;20454;-69
2022/06/14 14:10:09;;;;;;;2.77;1.73;;;21.20;99.90;;;;;;5056385;28;20542;-69
2022/06/14 14:12:46;;;;;;;3.67;1.83;;;21.10;99.90;;;;;;5049755;28;20475;-69
2022/06/14 14:15:27;;;;;;;1.70;1.60;;;20.90;99.90;;;;;;5052502;28;20546;-69
2022/06/14 14:18:12;;;;;;;3.60;2.20;;;21.10;99.90;;;;;;5034724;28;20999;-69
2022/06/14 14:20:47;;;;;;;6.13;2.07;;;21.20;99.90;;;;;;5044414;28;20958;-69
2022/06/14 14:23:29;;;;;;;2.33;1.73;;;21.40;99.90;;;;;;5040902;28;20490;-69
2022/06/14 14:26:04;;;;;;;2.03;1.87;;;21.50;99.50;;;;;;5040237;28;20464;-69
2022/06/14 14:28:52;;;;;;;5.67;1.97;;;21.50;99.30;;;;;;5049314;28;20605;-69
2022/06/14 14:31:35;;;;;;;3.03;1.83;;;21.30;99.60;;;;;;5050538;28;20563;-71
2022/06/14 14:34:10;;;;;;;2.47;1.83;;;21.20;99.90;;;;;;5046865;28;20466;-70
2022/06/14 14:37:02;;;;;;;2.47;1.97;;;21.10;99.40;;;;;;5050879;28;20469;-70
2022/06/14 14:40:24;;;;;;;4.03;2.27;;;21.00;99.90;;;;;;5049557;28;20502;-70
2022/06/14 14:43:01;;;;;;;5.83;2.37;;;21.30;99.30;;;;;;5002714;28;20576;-70
2022/06/14 14:45:41;;;;;;;1.93;1.80;;;21.70;99.10;;;;;;5050401;28;20991;-70
2022/06/14 14:48:28;;;;;;;2.03;1.73;;;21.80;98.10;;;;;;5051293;28;20472;-70
2022/06/14 14:51:02;;;;;;;1.40;1.40;;;21.60;98.80;;;;;;5050911;28;21078;-70
2022/06/14 14:53:40;;;;;;;1.33;1.30;;;21.60;98.40;;;;;;5049316;28;20470;-71
2022/06/14 14:56:16;;;;;;;1.83;1.70;;;21.60;98.30;;;;;;5050857;28;20563;-70
2022/06/14 14:58:55;;;;;;;2.93;1.80;;;21.70;98.20;;;;;;5051090;28;20547;-70
2022/06/14 15:07:34;;;;;;;1.60;1.47;;;21.30;98.30;;;;;;5050865;28;20455;-69
2022/06/14 15:10:10;;;;;;;2.70;1.90;;;21.20;98.70;;;;;;5049787;28;20925;-69
2022/06/14 15:12:45;;;;;;;1.80;1.70;;;21.00;99.20;;;;;;5049400;28;20487;-70
2022/06/14 15:15:19;;;;;;;4.70;1.77;;;20.90;99.20;;;;;;5050039;28;20520;-69
2022/06/14 15:20:50;;;;;;;1.53;1.33;;;20.70;99.90;;;;;;5050160;28;20471;-70
2022/06/14 15:23:41;;;;;;;4.37;2.80;;;20.80;99.90;;;;;;5049662;28;21026;-70
2022/06/14 15:26:16;;;;;;;1.43;1.37;;;20.50;99.80;;;;;;5042797;28;20472;-70
2022/06/14 15:29:00;;;;;;;1.87;1.77;;;20.50;99.90;;;;;;5043766;28;20456;-69
2022/06/14 15:32:02;;;;;;;1.33;1.23;;;20.50;99.60;;;;;;5049852;28;20480;-70
2022/06/14 15:34:35;;;;;;;1.63;1.30;;;20.50;99.70;;;;;;5045979;28;20492;-70
2022/06/14 15:37:24;;;;;;;3.20;1.83;;;20.30;99.50;;;;;;5050089;28;20555;-70
2022/06/14 15:40:00;;;;;;;3.67;1.70;;;20.40;99.90;;;;;;5047520;28;20464;-70
2022/06/14 15:42:46;;;;;;;3.50;1.83;;;20.50;99.90;;;;;;5046916;28;20484;-70
2022/06/14 15:45:27;;;;;;;4.17;1.43;;;20.50;99.80;;;;;;5049845;28;20532;-70
2022/06/14 15:48:08;;;;;;;1.80;1.70;;;20.50;99.90;;;;;;5050322;28;20797;-70
2022/06/14 15:50:45;;;;;;;1.20;1.20;;;20.60;99.90;;;;;;5049761;28;20467;-70
2022/06/14 15:53:19;;;;;;;2.20;1.70;;;20.80;99.80;;;;;;5048881;28;20566;-70
2022/06/14 15:55:58;;;;;;;1.93;1.50;;;20.90;99.40;;;;;;5041574;28;20536;-70
2022/06/14 15:58:31;;;;;;;3.10;1.30;;;21.00;99.50;;;;;;5049795;28;20459;-70
2022/06/14 16:01:01;;;;;;;2.23;1.50;;;21.00;98.80;;;;;;5049027;28;20524;-70
2022/06/14 16:03:45;;;;;;;2.70;1.30;;;21.00;99.00;;;;;;5046846;28;20578;-72
2022/06/14 16:06:26;;;;;;;1.57;1.47;;;21.00;99.40;;;;;;5047240;28;20496;-72
2022/06/14 16:09:03;;;;;;;2.33;1.53;;;21.00;99.50;;;;;;5046047;28;20464;-70
2022/06/14 16:11:46;;;;;;;1.43;1.10;;;20.90;99.40;;;;;;5047582;28;20570;-70
2022/06/14 16:14:21;;;;;;;5.37;1.80;;;20.90;99.60;;;;;;5045069;28;20541;-70
2022/06/14 16:17:07;;;;;;;3.80;1.40;;;20.90;99.90;;;;;;5042302;28;20460;-70
2022/06/14 16:19:45;;;;;;;4.60;1.70;;;20.80;99.60;;;;;;5041363;28;20530;-70
2022/06/14 16:22:22;;;;;;;5.40;1.40;;;20.80;99.30;;;;;;5047901;28;20562;-70
2022/06/14 16:24:55;;;;;;;1.40;1.30;;;20.70;99.40;;;;;;5039073;28;20971;-70
2022/06/14 16:27:43;;;;;;;2.10;1.80;;;20.50;99.50;;;;;;5048395;28;20525;-70
2022/06/14 16:30:19;;;;;;;1.20;1.20;;;20.40;99.60;;;;;;5045074;28;20474;-69
2022/06/14 16:33:08;;;;;;;2.43;1.40;;;20.40;99.90;;;;;;5043286;28;20472;-69
2022/06/14 16:35:45;;;;;;;1.37;1.27;;;20.50;99.90;;;;;;5047208;28;20460;-69
2022/06/14 16:38:38;;;;;;;1.07;0.90;;;20.20;99.90;;;;;;5048369;28;20463;-70
2022/06/14 16:41:21;;;;;;;1.17;1.10;;;20.20;99.90;;;;;;5046587;28;20579;-70
2022/06/14 16:43:59;;;;;;;1.90;1.30;;;20.30;99.90;;;;;;5043284;28;20545;-70
2022/06/14 16:46:37;;;;;;;1.37;1.30;;;20.20;99.90;;;;;;5048898;28;20459;-70
2022/06/14 16:49:21;;;;;;;1.93;1.83;;;20.10;99.90;;;;;;5047898;28;20464;-70
2022/06/14 16:52:00;;;;;;;1.47;1.20;;;20.10;99.90;;;;;;5036918;28;20609;-69
2022/06/14 16:54:37;;;;;;;2.30;1.80;;;20.10;99.90;;;;;;5042702;28;20491;-70
2022/06/14 16:57:18;;;;;;;1.63;1.50;;;20.00;99.90;;;;;;5043166;28;20567;-70
2022/06/14 16:59:57;;;;;;;1.40;1.40;;;20.00;99.90;;;;;;5030355;28;20565;-69
2022/06/14 17:03:07;;;;;;;1.30;1.30;;;20.00;99.90;;;;;;5045060;28;21187;-70
2022/06/14 17:05:39;;;;;;;1.50;1.40;;;20.00;99.90;;;;;;5042496;28;20487;-70
2022/06/14 17:08:18;;;;;;;2.10;1.50;;;19.90;99.90;;;;;;5040911;28;20588;-70
2022/06/14 17:10:53;;;;;;;1.50;1.40;;;19.80;99.90;;;;;;5039727;28;20515;-70
2022/06/14 17:13:33;;;;;;;1.70;1.30;;;19.70;99.90;;;;;;5039961;28;20455;-70
2022/06/14 17:16:13;;;;;;;1.90;1.50;;;19.60;99.90;;;;;;5039778;28;20459;-69
2022/06/14 17:18:50;;;;;;;1.50;1.40;;;19.60;99.90;;;;;;5047340;28;20857;-70
2022/06/14 17:21:26;;;;;;;1.63;1.40;;;19.70;99.90;;;;;;5044644;28;21214;-70
2022/06/14 17:24:03;;;;;;;2.30;2.17;;;19.50;99.90;;;;;;5043536;28;20898;-70
2022/06/14 17:32:23;;;;;;;3.13;1.67;;;19.30;99.90;;;;;;5044390;28;20545;-70
2022/06/14 17:35:00;;;;;;;3.77;1.93;;;19.30;99.90;;;;;;5041549;28;20452;-70
2022/06/14 17:37:36;;;;;;;2.87;1.40;;;19.30;99.90;;;;;;5047404;28;20567;-70
2022/06/14 17:40:12;;;;;;;3.93;1.80;;;19.30;99.90;;;;;;5047184;28;20514;-71
2022/06/14 17:42:42;;;;;;;1.57;1.50;;;19.30;99.90;;;;;;5046620;28;20574;-71
2022/06/14 17:45:14;;;;;;;2.10;1.53;;;19.40;99.90;;;;;;5047790;28;20487;-71
2022/06/14 17:47:49;;;;;;;2.03;1.93;;;19.40;99.90;;;;;;5045488;28;20549;-69
2022/06/14 17:50:27;;;;;;;3.10;1.90;;;19.40;99.90;;;;;;5037961;28;20876;-69
2022/06/14 17:53:01;;;;;;;1.77;1.67;;;19.50;99.90;;;;;;5043077;28;20464;-70
2022/06/14 17:55:41;;;;;;;4.50;1.60;;;19.40;99.90;;;;;;5043921;28;20460;-70
2022/06/14 17:58:20;;;;;;;2.10;1.77;;;19.40;99.90;;;;;;5047694;28;20585;-70
2022/06/14 18:00:56;;;;;;;1.60;1.50;;;19.40;99.90;;;;;;5046843;28;20522;-70
2022/06/14 18:03:30;;;;;;;1.70;1.13;;;19.20;99.90;;;;;;5050632;28;20558;-70
2022/06/14 18:06:03;;;;;;;1.83;1.43;;;19.30;99.90;;;;;;5046988;28;20478;-70
2022/06/14 18:08:35;;;;;;;1.73;1.57;;;19.30;99.90;;;;;;5048750;28;21006;-70
2022/06/14 18:11:26;;;;;;;1.80;1.70;;;19.30;99.90;;;;;;5046669;28;20956;-70
2022/06/14 18:13:58;;;;;;;3.30;1.60;;;19.10;99.90;;;;;;5042925;28;20917;-70
2022/06/14 18:16:38;;;;;;;1.73;1.63;;;19.00;99.90;;;;;;5048166;28;20471;-70
2022/06/14 18:21:51;;;;;;;2.03;1.40;;;19.00;99.90;;;;;;5046664;28;20769;-70
2022/06/14 18:24:41;;;;;;;1.40;1.40;;;19.00;99.90;;;;;;5041780;28;20531;-70
2022/06/14 18:27:12;;;;;;;1.87;1.73;;;18.90;99.90;;;;;;5042782;28;20500;-71